sensor_id;sensor_type;location;lat;lon;timestamp;temperature;humidity
26909;DHT22;14477;51.038;4.588;2023-10-08T00:01:09;19.10;68.90
26909;DHT22;14477;51.038;4.588;2023-10-08T00:03:42;19.10;68.90
26909;DHT22;14477;51.038;4.588;2023-10-08T00:06:14;19.10;68.90
26909;DHT22;14477;51.038;4.588;2023-10-08T00:08:40;19.10;68.90
26909;DHT22;14477;51.038;4.588;2023-10-08T00:11:06;19.00;68.90
26909;DHT22;14477;51.038;4.588;2023-10-08T00:13:33;19.00;68.90
26909;DHT22;14477;51.038;4.588;2023-10-08T00:16:06;19.00;68.90
26909;DHT22;14477;51.038;4.588;2023-10-08T00:18:36;18.90;68.90
26909;DHT22;14477;51.038;4.588;2023-10-08T00:21:15;18.90;68.90
26909;DHT22;14477;51.038;4.588;2023-10-08T00:23:40;18.90;68.90
26909;DHT22;14477;51.038;4.588;2023-10-08T00:26:21;18.90;69.00
26909;DHT22;14477;51.038;4.588;2023-10-08T00:29:03;18.90;69.00
26909;DHT22;14477;51.038;4.588;2023-10-08T00:31:42;18.80;69.20
26909;DHT22;14477;51.038;4.588;2023-10-08T00:34:13;18.80;69.00
26909;DHT22;14477;51.038;4.588;2023-10-08T00:36:43;18.80;69.00
26909;DHT22;14477;51.038;4.588;2023-10-08T00:39:11;18.70;69.10
26909;DHT22;14477;51.038;4.588;2023-10-08T00:41:46;18.70;69.10
26909;DHT22;14477;51.038;4.588;2023-10-08T00:44:13;18.70;69.40
26909;DHT22;14477;51.038;4.588;2023-10-08T00:46:44;18.60;69.10
26909;DHT22;14477;51.038;4.588;2023-10-08T00:49:21;18.60;69.90
26909;DHT22;14477;51.038;4.588;2023-10-08T00:51:54;18.60;69.50
26909;DHT22;14477;51.038;4.588;2023-10-08T00:54:34;18.50;69.40
26909;DHT22;14477;51.038;4.588;2023-10-08T00:57:14;18.40;69.30
26909;DHT22;14477;51.038;4.588;2023-10-08T00:59:46;18.40;69.40
26909;DHT22;14477;51.038;4.588;2023-10-08T01:02:21;18.40;69.50
26909;DHT22;14477;51.038;4.588;2023-10-08T01:04:51;18.40;69.50
26909;DHT22;14477;51.038;4.588;2023-10-08T01:07:18;18.30;69.50
26909;DHT22;14477;51.038;4.588;2023-10-08T01:09:44;18.20;69.60
26909;DHT22;14477;51.038;4.588;2023-10-08T01:12:25;18.20;69.60
26909;DHT22;14477;51.038;4.588;2023-10-08T01:15:00;18.20;69.60
26909;DHT22;14477;51.038;4.588;2023-10-08T01:17:42;18.10;69.70
26909;DHT22;14477;51.038;4.588;2023-10-08T01:20:22;18.10;69.70
26909;DHT22;14477;51.038;4.588;2023-10-08T01:23:06;18.00;69.70
26909;DHT22;14477;51.038;4.588;2023-10-08T01:25:47;18.10;70.20
26909;DHT22;14477;51.038;4.588;2023-10-08T01:28:17;18.00;70.10
26909;DHT22;14477;51.038;4.588;2023-10-08T01:30:53;18.00;70.20
26909;DHT22;14477;51.038;4.588;2023-10-08T01:33:21;17.90;70.10
26909;DHT22;14477;51.038;4.588;2023-10-08T01:35:47;17.80;70.10
26909;DHT22;14477;51.038;4.588;2023-10-08T01:38:16;17.80;70.20
26909;DHT22;14477;51.038;4.588;2023-10-08T01:40:47;17.70;70.20
26909;DHT22;14477;51.038;4.588;2023-10-08T01:43:16;17.70;70.30
26909;DHT22;14477;51.038;4.588;2023-10-08T01:45:43;17.70;70.30
26909;DHT22;14477;51.038;4.588;2023-10-08T01:48:14;17.60;70.40
26909;DHT22;14477;51.038;4.588;2023-10-08T01:50:57;17.60;70.50
26909;DHT22;14477;51.038;4.588;2023-10-08T01:53:29;17.50;70.70
26909;DHT22;14477;51.038;4.588;2023-10-08T01:55:56;17.50;70.50
26909;DHT22;14477;51.038;4.588;2023-10-08T01:58:22;17.50;70.70
26909;DHT22;14477;51.038;4.588;2023-10-08T02:00:50;17.50;70.80
26909;DHT22;14477;51.038;4.588;2023-10-08T02:03:18;17.50;71.00
26909;DHT22;14477;51.038;4.588;2023-10-08T02:05:47;17.50;71.00
26909;DHT22;14477;51.038;4.588;2023-10-08T02:08:14;17.50;71.20
26909;DHT22;14477;51.038;4.588;2023-10-08T02:10:43;17.50;71.20
26909;DHT22;14477;51.038;4.588;2023-10-08T02:13:13;17.50;71.20
26909;DHT22;14477;51.038;4.588;2023-10-08T02:15:48;17.50;71.90
26909;DHT22;14477;51.038;4.588;2023-10-08T02:18:17;17.50;71.70
26909;DHT22;14477;51.038;4.588;2023-10-08T02:20:44;17.50;71.10
26909;DHT22;14477;51.038;4.588;2023-10-08T02:23:10;17.50;71.20
26909;DHT22;14477;51.038;4.588;2023-10-08T02:25:39;17.50;71.20
26909;DHT22;14477;51.038;4.588;2023-10-08T02:28:08;17.50;71.30
26909;DHT22;14477;51.038;4.588;2023-10-08T02:30:35;17.50;71.60
26909;DHT22;14477;51.038;4.588;2023-10-08T02:33:08;17.50;71.60
26909;DHT22;14477;51.038;4.588;2023-10-08T02:35:43;17.50;71.80
26909;DHT22;14477;51.038;4.588;2023-10-08T02:38:11;17.50;72.00
26909;DHT22;14477;51.038;4.588;2023-10-08T02:40:39;17.50;71.90
26909;DHT22;14477;51.038;4.588;2023-10-08T02:43:10;17.50;71.90
26909;DHT22;14477;51.038;4.588;2023-10-08T02:45:37;17.50;72.00
26909;DHT22;14477;51.038;4.588;2023-10-08T02:48:07;17.50;72.00
26909;DHT22;14477;51.038;4.588;2023-10-08T02:50:39;17.50;72.00
26909;DHT22;14477;51.038;4.588;2023-10-08T02:53:09;17.50;72.10
26909;DHT22;14477;51.038;4.588;2023-10-08T02:55:40;17.60;72.20
26909;DHT22;14477;51.038;4.588;2023-10-08T02:58:13;17.50;72.20
26909;DHT22;14477;51.038;4.588;2023-10-08T03:00:45;17.50;72.20
26909;DHT22;14477;51.038;4.588;2023-10-08T03:03:14;17.60;72.30
26909;DHT22;14477;51.038;4.588;2023-10-08T03:05:47;17.60;72.30
26909;DHT22;14477;51.038;4.588;2023-10-08T03:08:14;17.60;72.50
26909;DHT22;14477;51.038;4.588;2023-10-08T03:10:53;17.50;72.30
26909;DHT22;14477;51.038;4.588;2023-10-08T03:13:27;17.50;72.70
26909;DHT22;14477;51.038;4.588;2023-10-08T03:15:53;17.50;72.40
26909;DHT22;14477;51.038;4.588;2023-10-08T03:18:25;17.60;72.70
26909;DHT22;14477;51.038;4.588;2023-10-08T03:20:50;17.50;72.70
26909;DHT22;14477;51.038;4.588;2023-10-08T03:23:17;17.50;72.70
26909;DHT22;14477;51.038;4.588;2023-10-08T03:25:56;17.50;72.80
26909;DHT22;14477;51.038;4.588;2023-10-08T03:28:38;17.50;73.30
26909;DHT22;14477;51.038;4.588;2023-10-08T03:31:06;17.50;72.90
26909;DHT22;14477;51.038;4.588;2023-10-08T03:33:40;17.50;72.80
26909;DHT22;14477;51.038;4.588;2023-10-08T03:36:06;17.50;72.90
26909;DHT22;14477;51.038;4.588;2023-10-08T03:38:55;17.50;73.10
26909;DHT22;14477;51.038;4.588;2023-10-08T03:41:23;17.50;73.10
26909;DHT22;14477;51.038;4.588;2023-10-08T03:43:58;17.50;73.20
26909;DHT22;14477;51.038;4.588;2023-10-08T03:46:31;17.50;73.30
26909;DHT22;14477;51.038;4.588;2023-10-08T03:49:00;17.50;73.60
26909;DHT22;14477;51.038;4.588;2023-10-08T03:51:31;17.40;73.60
26909;DHT22;14477;51.038;4.588;2023-10-08T03:54:05;17.40;73.50
26909;DHT22;14477;51.038;4.588;2023-10-08T03:56:40;17.40;73.50
26909;DHT22;14477;51.038;4.588;2023-10-08T03:59:14;17.30;73.50
26909;DHT22;14477;51.038;4.588;2023-10-08T04:01:46;17.30;73.90
26909;DHT22;14477;51.038;4.588;2023-10-08T04:04:15;17.30;73.60
26909;DHT22;14477;51.038;4.588;2023-10-08T04:06:42;17.30;73.80
26909;DHT22;14477;51.038;4.588;2023-10-08T04:09:15;17.20;74.00
26909;DHT22;14477;51.038;4.588;2023-10-08T04:11:50;17.20;73.90
26909;DHT22;14477;51.038;4.588;2023-10-08T04:14:30;17.20;74.00
26909;DHT22;14477;51.038;4.588;2023-10-08T04:16:56;17.20;74.00
26909;DHT22;14477;51.038;4.588;2023-10-08T04:19:24;17.10;74.10
26909;DHT22;14477;51.038;4.588;2023-10-08T04:21:53;17.00;74.10
26909;DHT22;14477;51.038;4.588;2023-10-08T04:24:23;17.00;74.40
26909;DHT22;14477;51.038;4.588;2023-10-08T04:27:02;16.90;74.80
26909;DHT22;14477;51.038;4.588;2023-10-08T04:29:29;16.90;74.50
26909;DHT22;14477;51.038;4.588;2023-10-08T04:32:01;16.10;78.30
26909;DHT22;14477;51.038;4.588;2023-10-08T04:34:30;16.80;74.70
26909;DHT22;14477;51.038;4.588;2023-10-08T04:36:58;16.80;74.90
26909;DHT22;14477;51.038;4.588;2023-10-08T04:39:27;16.80;74.70
26909;DHT22;14477;51.038;4.588;2023-10-08T04:42:02;16.80;74.90
26909;DHT22;14477;51.038;4.588;2023-10-08T04:44:35;16.70;75.40
26909;DHT22;14477;51.038;4.588;2023-10-08T04:47:04;16.70;75.00
26909;DHT22;14477;51.038;4.588;2023-10-08T04:49:31;16.60;75.00
26909;DHT22;14477;51.038;4.588;2023-10-08T04:52:02;16.60;75.10
26909;DHT22;14477;51.038;4.588;2023-10-08T04:54:34;16.60;75.40
26909;DHT22;14477;51.038;4.588;2023-10-08T04:57:06;16.50;75.10
26909;DHT22;14477;51.038;4.588;2023-10-08T04:59:32;16.50;75.20
26909;DHT22;14477;51.038;4.588;2023-10-08T05:02:00;16.50;75.30
26909;DHT22;14477;51.038;4.588;2023-10-08T05:04:41;16.40;75.50
26909;DHT22;14477;51.038;4.588;2023-10-08T05:07:25;16.40;75.70
26909;DHT22;14477;51.038;4.588;2023-10-08T05:10:17;16.40;75.90
26909;DHT22;14477;51.038;4.588;2023-10-08T05:12:55;16.30;75.50
26909;DHT22;14477;51.038;4.588;2023-10-08T05:15:30;16.30;76.00
26909;DHT22;14477;51.038;4.588;2023-10-08T05:18:03;17.90;82.80
26909;DHT22;14477;51.038;4.588;2023-10-08T05:20:38;16.20;76.00
26909;DHT22;14477;51.038;4.588;2023-10-08T05:23:25;16.20;76.00
26909;DHT22;14477;51.038;4.588;2023-10-08T05:25:55;16.10;76.30
26909;DHT22;14477;51.038;4.588;2023-10-08T05:28:38;16.20;76.50
26909;DHT22;14477;51.038;4.588;2023-10-08T05:31:28;16.10;76.90
26909;DHT22;14477;51.038;4.588;2023-10-08T05:34:06;16.10;76.60
26909;DHT22;14477;51.038;4.588;2023-10-08T05:36:46;16.10;76.60
26909;DHT22;14477;51.038;4.588;2023-10-08T05:39:30;16.10;77.10
26909;DHT22;14477;51.038;4.588;2023-10-08T05:42:09;16.00;76.60
26909;DHT22;14477;51.038;4.588;2023-10-08T05:44:41;16.00;77.10
26909;DHT22;14477;51.038;4.588;2023-10-08T05:47:14;16.00;76.80
26909;DHT22;14477;51.038;4.588;2023-10-08T05:49:59;16.00;77.10
26909;DHT22;14477;51.038;4.588;2023-10-08T05:52:46;16.00;76.90
26909;DHT22;14477;51.038;4.588;2023-10-08T05:55:31;16.00;77.20
26909;DHT22;14477;51.038;4.588;2023-10-08T05:58:04;15.90;77.30
26909;DHT22;14477;51.038;4.588;2023-10-08T06:00:43;15.90;77.20
26909;DHT22;14477;51.038;4.588;2023-10-08T06:03:31;15.90;77.40
26909;DHT22;14477;51.038;4.588;2023-10-08T06:06:23;15.90;77.00
26909;DHT22;14477;51.038;4.588;2023-10-08T06:08:51;15.90;77.10
26909;DHT22;14477;51.038;4.588;2023-10-08T06:11:21;15.90;77.20
26909;DHT22;14477;51.038;4.588;2023-10-08T06:14:05;15.90;77.70
26909;DHT22;14477;51.038;4.588;2023-10-08T06:16:44;15.90;77.50
26909;DHT22;14477;51.038;4.588;2023-10-08T06:19:12;15.90;77.90
26909;DHT22;14477;51.038;4.588;2023-10-08T06:21:40;15.90;77.60
26909;DHT22;14477;51.038;4.588;2023-10-08T06:24:07;15.90;77.70
26909;DHT22;14477;51.038;4.588;2023-10-08T06:26:39;15.90;77.90
26909;DHT22;14477;51.038;4.588;2023-10-08T06:29:12;16.00;78.50
26909;DHT22;14477;51.038;4.588;2023-10-08T06:31:56;16.00;78.60
26909;DHT22;14477;51.038;4.588;2023-10-08T06:34:23;16.00;78.60
26909;DHT22;14477;51.038;4.588;2023-10-08T06:36:53;16.10;78.40
26909;DHT22;14477;51.038;4.588;2023-10-08T06:39:24;16.10;78.50
26909;DHT22;14477;51.038;4.588;2023-10-08T06:41:59;16.20;79.00
26909;DHT22;14477;51.038;4.588;2023-10-08T06:44:25;16.30;78.80
26909;DHT22;14477;51.038;4.588;2023-10-08T06:46:53;16.30;79.00
26909;DHT22;14477;51.038;4.588;2023-10-08T06:49:21;16.30;79.10
26909;DHT22;14477;51.038;4.588;2023-10-08T06:51:50;16.40;79.10
26909;DHT22;14477;51.038;4.588;2023-10-08T06:54:16;16.40;79.30
26909;DHT22;14477;51.038;4.588;2023-10-08T06:56:44;16.50;79.30
26909;DHT22;14477;51.038;4.588;2023-10-08T06:59:17;16.50;79.40
26909;DHT22;14477;51.038;4.588;2023-10-08T07:01:43;16.60;79.40
26909;DHT22;14477;51.038;4.588;2023-10-08T07:04:13;16.70;79.50
26909;DHT22;14477;51.038;4.588;2023-10-08T07:06:42;16.70;79.50
26909;DHT22;14477;51.038;4.588;2023-10-08T07:09:10;16.80;79.60
26909;DHT22;14477;51.038;4.588;2023-10-08T07:11:58;16.90;79.80
26909;DHT22;14477;51.038;4.588;2023-10-08T07:14:25;16.90;80.10
26909;DHT22;14477;51.038;4.588;2023-10-08T07:16:55;17.00;79.90
26909;DHT22;14477;51.038;4.588;2023-10-08T07:19:24;17.00;80.20
26909;DHT22;14477;51.038;4.588;2023-10-08T07:21:59;17.10;80.00
26909;DHT22;14477;51.038;4.588;2023-10-08T07:24:29;17.20;80.40
26909;DHT22;14477;51.038;4.588;2023-10-08T07:26:58;17.30;80.90
26909;DHT22;14477;51.038;4.588;2023-10-08T07:29:23;17.40;81.30
26909;DHT22;14477;51.038;4.588;2023-10-08T07:31:50;17.60;81.80
26909;DHT22;14477;51.038;4.588;2023-10-08T07:34:18;17.90;82.30
26909;DHT22;14477;51.038;4.588;2023-10-08T07:36:48;18.10;82.70
26909;DHT22;14477;51.038;4.588;2023-10-08T07:39:15;18.40;83.00
26909;DHT22;14477;51.038;4.588;2023-10-08T07:41:51;18.80;83.30
26909;DHT22;14477;51.038;4.588;2023-10-08T07:44:17;19.10;83.40
26909;DHT22;14477;51.038;4.588;2023-10-08T07:46:48;19.50;83.20
26909;DHT22;14477;51.038;4.588;2023-10-08T07:49:14;19.80;82.90
26909;DHT22;14477;51.038;4.588;2023-10-08T07:51:40;20.10;82.80
26909;DHT22;14477;51.038;4.588;2023-10-08T07:54:06;20.40;82.70
26909;DHT22;14477;51.038;4.588;2023-10-08T07:56:35;20.60;82.40
26909;DHT22;14477;51.038;4.588;2023-10-08T07:59:03;21.40;82.30
26909;DHT22;14477;51.038;4.588;2023-10-08T08:01:34;21.10;81.40
26909;DHT22;14477;51.038;4.588;2023-10-08T08:04:00;21.30;80.60
26909;DHT22;14477;51.038;4.588;2023-10-08T08:06:26;21.40;79.70
26909;DHT22;14477;51.038;4.588;2023-10-08T08:08:51;21.50;79.20
26909;DHT22;14477;51.038;4.588;2023-10-08T08:11:17;21.50;78.80
26909;DHT22;14477;51.038;4.588;2023-10-08T08:13:45;21.60;78.50
26909;DHT22;14477;51.038;4.588;2023-10-08T08:16:14;21.60;78.10
26909;DHT22;14477;51.038;4.588;2023-10-08T08:18:52;21.60;77.70
26909;DHT22;14477;51.038;4.588;2023-10-08T08:21:22;21.60;77.60
26909;DHT22;14477;51.038;4.588;2023-10-08T08:23:49;21.50;77.70
26909;DHT22;14477;51.038;4.588;2023-10-08T08:26:20;21.50;77.40
26909;DHT22;14477;51.038;4.588;2023-10-08T08:29:00;21.50;77.40
26909;DHT22;14477;51.038;4.588;2023-10-08T08:31:28;21.40;77.20
26909;DHT22;14477;51.038;4.588;2023-10-08T08:33:58;21.40;77.30
26909;DHT22;14477;51.038;4.588;2023-10-08T08:36:43;21.30;77.50
26909;DHT22;14477;51.038;4.588;2023-10-08T08:39:13;21.30;78.10
26909;DHT22;14477;51.038;4.588;2023-10-08T08:41:58;21.40;78.50
26909;DHT22;14477;51.038;4.588;2023-10-08T08:44:29;21.50;79.10
26909;DHT22;14477;51.038;4.588;2023-10-08T08:46:59;21.60;79.70
26909;DHT22;14477;51.038;4.588;2023-10-08T08:49:32;21.80;80.30
26909;DHT22;14477;51.038;4.588;2023-10-08T08:52:00;22.10;80.90
26909;DHT22;14477;51.038;4.588;2023-10-08T08:54:27;22.40;81.60
26909;DHT22;14477;51.038;4.588;2023-10-08T08:56:57;22.60;82.20
26909;DHT22;14477;51.038;4.588;2023-10-08T08:59:26;23.10;83.50
26909;DHT22;14477;51.038;4.588;2023-10-08T09:01:53;23.40;82.60
26909;DHT22;14477;51.038;4.588;2023-10-08T09:04:28;23.80;82.00
26909;DHT22;14477;51.038;4.588;2023-10-08T09:06:55;24.20;80.30
26909;DHT22;14477;51.038;4.588;2023-10-08T09:09:22;24.50;81.20
26909;DHT22;14477;51.038;4.588;2023-10-08T09:11:52;24.80;80.90
26909;DHT22;14477;51.038;4.588;2023-10-08T09:14:22;25.10;80.00
26909;DHT22;14477;51.038;4.588;2023-10-08T09:16:59;25.40;79.70
26909;DHT22;14477;51.038;4.588;2023-10-08T09:19:26;25.60;79.00
26909;DHT22;14477;51.038;4.588;2023-10-08T09:22:09;25.90;80.00
26909;DHT22;14477;51.038;4.588;2023-10-08T09:24:38;26.30;77.90
26909;DHT22;14477;51.038;4.588;2023-10-08T09:27:11;26.60;79.60
26909;DHT22;14477;51.038;4.588;2023-10-08T09:29:44;27.20;77.20
26909;DHT22;14477;51.038;4.588;2023-10-08T09:32:12;27.30;77.70
26909;DHT22;14477;51.038;4.588;2023-10-08T09:34:49;27.50;77.90
26909;DHT22;14477;51.038;4.588;2023-10-08T09:37:17;27.70;77.60
26909;DHT22;14477;51.038;4.588;2023-10-08T09:39:44;28.00;76.70
26909;DHT22;14477;51.038;4.588;2023-10-08T09:42:12;28.20;76.60
26909;DHT22;14477;51.038;4.588;2023-10-08T09:44:39;28.50;76.60
26909;DHT22;14477;51.038;4.588;2023-10-08T09:47:06;28.80;76.90
26909;DHT22;14477;51.038;4.588;2023-10-08T09:50:02;29.10;76.70
26909;DHT22;14477;51.038;4.588;2023-10-08T09:53:08;29.50;73.30
26909;DHT22;14477;51.038;4.588;2023-10-08T09:55:45;29.90;73.20
26909;DHT22;14477;51.038;4.588;2023-10-08T09:58:14;30.20;74.40
26909;DHT22;14477;51.038;4.588;2023-10-08T10:00:43;30.40;74.20
26909;DHT22;14477;51.038;4.588;2023-10-08T10:03:10;30.70;73.70
26909;DHT22;14477;51.038;4.588;2023-10-08T10:05:39;31.00;73.50
26909;DHT22;14477;51.038;4.588;2023-10-08T10:08:05;31.30;73.00
26909;DHT22;14477;51.038;4.588;2023-10-08T10:10:37;31.60;72.20
26909;DHT22;14477;51.038;4.588;2023-10-08T10:13:12;31.90;71.40
26909;DHT22;14477;51.038;4.588;2023-10-08T10:15:39;32.20;69.80
26909;DHT22;14477;51.038;4.588;2023-10-08T10:18:14;32.40;69.40
26909;DHT22;14477;51.038;4.588;2023-10-08T10:20:57;32.50;66.20
26909;DHT22;14477;51.038;4.588;2023-10-08T10:23:52;32.70;66.20
26909;DHT22;14477;51.038;4.588;2023-10-08T10:31:41;33.00;63.10
26909;DHT22;14477;51.038;4.588;2023-10-08T10:34:11;33.10;65.60
26909;DHT22;14477;51.038;4.588;2023-10-08T10:36:39;33.20;65.40
26909;DHT22;14477;51.038;4.588;2023-10-08T10:39:06;33.30;65.40
26909;DHT22;14477;51.038;4.588;2023-10-08T10:41:50;33.40;64.60
26909;DHT22;14477;51.038;4.588;2023-10-08T10:44:17;33.60;62.50
26909;DHT22;14477;51.038;4.588;2023-10-08T10:46:45;33.80;64.20
26909;DHT22;14477;51.038;4.588;2023-10-08T10:49:19;33.90;63.30
26909;DHT22;14477;51.038;4.588;2023-10-08T10:51:49;34.00;62.30
26909;DHT22;14477;51.038;4.588;2023-10-08T10:54:18;34.30;62.80
26909;DHT22;14477;51.038;4.588;2023-10-08T10:56:47;34.40;62.60
26909;DHT22;14477;51.038;4.588;2023-10-08T10:59:14;34.60;62.90
26909;DHT22;14477;51.038;4.588;2023-10-08T11:01:48;34.80;61.40
26909;DHT22;14477;51.038;4.588;2023-10-08T11:04:40;34.90;60.80
26909;DHT22;14477;51.038;4.588;2023-10-08T11:07:20;35.10;60.80
26909;DHT22;14477;51.038;4.588;2023-10-08T11:09:49;35.30;59.00
26909;DHT22;14477;51.038;4.588;2023-10-08T11:12:18;35.30;58.30
26909;DHT22;14477;51.038;4.588;2023-10-08T11:14:49;35.40;58.40
26909;DHT22;14477;51.038;4.588;2023-10-08T11:17:25;35.40;58.30
26909;DHT22;14477;51.038;4.588;2023-10-08T11:19:52;35.50;56.50
26909;DHT22;14477;51.038;4.588;2023-10-08T11:22:19;35.50;57.30
26909;DHT22;14477;51.038;4.588;2023-10-08T11:24:48;35.50;56.70
26909;DHT22;14477;51.038;4.588;2023-10-08T11:27:18;35.40;56.00
26909;DHT22;14477;51.038;4.588;2023-10-08T11:29:55;35.40;55.90
26909;DHT22;14477;51.038;4.588;2023-10-08T11:32:26;35.40;56.00
26909;DHT22;14477;51.038;4.588;2023-10-08T11:34:59;35.40;56.00
26909;DHT22;14477;51.038;4.588;2023-10-08T11:37:30;35.50;54.80
26909;DHT22;14477;51.038;4.588;2023-10-08T11:39:59;35.50;54.90
26909;DHT22;14477;51.038;4.588;2023-10-08T11:42:34;35.50;55.20
26909;DHT22;14477;51.038;4.588;2023-10-08T11:45:00;35.50;55.00
26909;DHT22;14477;51.038;4.588;2023-10-08T11:47:47;35.60;55.50
26909;DHT22;14477;51.038;4.588;2023-10-08T11:50:23;35.80;54.20
26909;DHT22;14477;51.038;4.588;2023-10-08T11:52:59;35.90;54.30
26909;DHT22;14477;51.038;4.588;2023-10-08T11:55:29;36.10;54.40
26909;DHT22;14477;51.038;4.588;2023-10-08T11:58:00;36.20;54.00
26909;DHT22;14477;51.038;4.588;2023-10-08T12:00:26;36.20;53.30
26909;DHT22;14477;51.038;4.588;2023-10-08T12:02:52;36.20;52.90
26909;DHT22;14477;51.038;4.588;2023-10-08T12:05:21;36.20;53.40
26909;DHT22;14477;51.038;4.588;2023-10-08T12:07:53;36.10;52.70
26909;DHT22;14477;51.038;4.588;2023-10-08T12:10:23;36.20;52.20
26909;DHT22;14477;51.038;4.588;2023-10-08T12:12:49;36.30;52.70
26909;DHT22;14477;51.038;4.588;2023-10-08T12:15:21;36.40;52.30
26909;DHT22;14477;51.038;4.588;2023-10-08T12:17:52;36.60;51.90
26909;DHT22;14477;51.038;4.588;2023-10-08T12:20:39;36.60;51.50
26909;DHT22;14477;51.038;4.588;2023-10-08T12:23:10;36.70;50.90
26909;DHT22;14477;51.038;4.588;2023-10-08T12:25:48;36.70;50.80
26909;DHT22;14477;51.038;4.588;2023-10-08T12:28:19;36.70;50.50
26909;DHT22;14477;51.038;4.588;2023-10-08T12:30:46;36.80;49.70
26909;DHT22;14477;51.038;4.588;2023-10-08T12:33:12;36.80;50.30
26909;DHT22;14477;51.038;4.588;2023-10-08T12:35:42;36.80;50.10
26909;DHT22;14477;51.038;4.588;2023-10-08T12:38:09;36.80;49.50
26909;DHT22;14477;51.038;4.588;2023-10-08T12:40:37;36.70;48.70
26909;DHT22;14477;51.038;4.588;2023-10-08T12:43:25;36.50;48.00
26909;DHT22;14477;51.038;4.588;2023-10-08T12:45:54;36.10;46.70
26909;DHT22;14477;51.038;4.588;2023-10-08T12:48:27;35.70;47.20
26909;DHT22;14477;51.038;4.588;2023-10-08T12:50:56;35.50;47.20
26909;DHT22;14477;51.038;4.588;2023-10-08T12:53:24;35.20;47.50
26909;DHT22;14477;51.038;4.588;2023-10-08T12:55:56;35.10;48.40
26909;DHT22;14477;51.038;4.588;2023-10-08T12:58:24;35.00;48.50
26909;DHT22;14477;51.038;4.588;2023-10-08T13:00:55;35.10;49.40
26909;DHT22;14477;51.038;4.588;2023-10-08T13:03:28;35.10;50.10
26909;DHT22;14477;51.038;4.588;2023-10-08T13:05:59;35.10;49.00
26909;DHT22;14477;51.038;4.588;2023-10-08T13:08:31;35.00;48.70
26909;DHT22;14477;51.038;4.588;2023-10-08T13:11:00;35.00;48.70
26909;DHT22;14477;51.038;4.588;2023-10-08T13:13:35;35.00;48.40
26909;DHT22;14477;51.038;4.588;2023-10-08T13:16:03;34.90;48.00
26909;DHT22;14477;51.038;4.588;2023-10-08T13:18:33;34.90;48.80
26909;DHT22;14477;51.038;4.588;2023-10-08T13:20:59;34.90;48.70
26909;DHT22;14477;51.038;4.588;2023-10-08T13:23:26;34.90;48.70
26909;DHT22;14477;51.038;4.588;2023-10-08T13:25:53;34.90;48.70
26909;DHT22;14477;51.038;4.588;2023-10-08T13:28:23;35.00;48.40
26909;DHT22;14477;51.038;4.588;2023-10-08T13:30:52;35.00;48.00
26909;DHT22;14477;51.038;4.588;2023-10-08T13:33:22;35.00;47.90
26909;DHT22;14477;51.038;4.588;2023-10-08T13:35:49;34.90;47.10
26909;DHT22;14477;51.038;4.588;2023-10-08T13:38:18;34.80;47.30
26909;DHT22;14477;51.038;4.588;2023-10-08T13:40:51;34.70;46.80
26909;DHT22;14477;51.038;4.588;2023-10-08T13:43:35;34.50;46.70
26909;DHT22;14477;51.038;4.588;2023-10-08T13:46:02;34.30;47.00
26909;DHT22;14477;51.038;4.588;2023-10-08T13:48:31;34.00;47.40
26909;DHT22;14477;51.038;4.588;2023-10-08T13:51:02;33.80;47.70
26909;DHT22;14477;51.038;4.588;2023-10-08T13:53:31;33.70;47.50
26909;DHT22;14477;51.038;4.588;2023-10-08T13:55:58;33.60;47.70
26909;DHT22;14477;51.038;4.588;2023-10-08T13:58:29;33.50;47.90
26909;DHT22;14477;51.038;4.588;2023-10-08T14:01:09;33.40;48.10
26909;DHT22;14477;51.038;4.588;2023-10-08T14:03:48;33.30;48.20
26909;DHT22;14477;51.038;4.588;2023-10-08T14:06:15;33.20;48.30
26909;DHT22;14477;51.038;4.588;2023-10-08T14:08:42;33.10;48.40
26909;DHT22;14477;51.038;4.588;2023-10-08T14:11:14;33.00;48.60
26909;DHT22;14477;51.038;4.588;2023-10-08T14:13:40;33.00;48.70
26909;DHT22;14477;51.038;4.588;2023-10-08T14:16:09;32.90;48.80
26909;DHT22;14477;51.038;4.588;2023-10-08T14:18:37;32.80;48.50
26909;DHT22;14477;51.038;4.588;2023-10-08T14:21:09;32.70;48.50
26909;DHT22;14477;51.038;4.588;2023-10-08T14:23:39;32.70;48.30
26909;DHT22;14477;51.038;4.588;2023-10-08T14:26:09;32.50;47.70
26909;DHT22;14477;51.038;4.588;2023-10-08T14:28:37;32.30;47.70
26909;DHT22;14477;51.038;4.588;2023-10-08T14:31:10;32.10;47.90
26909;DHT22;14477;51.038;4.588;2023-10-08T14:33:44;31.90;48.10
26909;DHT22;14477;51.038;4.588;2023-10-08T14:36:33;31.80;48.60
26909;DHT22;14477;51.038;4.588;2023-10-08T14:39:18;31.60;48.50
26909;DHT22;14477;51.038;4.588;2023-10-08T14:42:11;31.40;48.70
26909;DHT22;14477;51.038;4.588;2023-10-08T14:44:56;31.30;49.60
26909;DHT22;14477;51.038;4.588;2023-10-08T14:47:22;31.10;49.10
26909;DHT22;14477;51.038;4.588;2023-10-08T14:49:48;31.00;49.10
26909;DHT22;14477;51.038;4.588;2023-10-08T14:52:14;30.90;49.30
26909;DHT22;14477;51.038;4.588;2023-10-08T14:54:40;30.80;49.40
26909;DHT22;14477;51.038;4.588;2023-10-08T14:57:07;30.70;49.80
26909;DHT22;14477;51.038;4.588;2023-10-08T14:59:33;30.60;50.10
26909;DHT22;14477;51.038;4.588;2023-10-08T15:01:59;30.50;50.00
26909;DHT22;14477;51.038;4.588;2023-10-08T15:04:25;30.40;50.10
26909;DHT22;14477;51.038;4.588;2023-10-08T15:06:57;30.30;50.40
26909;DHT22;14477;51.038;4.588;2023-10-08T15:09:24;30.20;50.80
26909;DHT22;14477;51.038;4.588;2023-10-08T15:11:51;30.10;50.80
26909;DHT22;14477;51.038;4.588;2023-10-08T15:14:20;30.10;51.00
26909;DHT22;14477;51.038;4.588;2023-10-08T15:16:48;30.00;51.30
26909;DHT22;14477;51.038;4.588;2023-10-08T15:19:21;29.90;51.60
26909;DHT22;14477;51.038;4.588;2023-10-08T15:21:51;29.80;52.00
26909;DHT22;14477;51.038;4.588;2023-10-08T15:24:21;29.70;52.00
26909;DHT22;14477;51.038;4.588;2023-10-08T15:26:48;29.70;52.10
26909;DHT22;14477;51.038;4.588;2023-10-08T15:29:15;29.60;52.00
26909;DHT22;14477;51.038;4.588;2023-10-08T15:31:41;29.50;52.20
26909;DHT22;14477;51.038;4.588;2023-10-08T15:34:08;29.50;52.40
26909;DHT22;14477;51.038;4.588;2023-10-08T15:36:34;29.50;52.40
26909;DHT22;14477;51.038;4.588;2023-10-08T15:39:00;29.40;52.40
26909;DHT22;14477;51.038;4.588;2023-10-08T15:41:26;29.40;52.60
26909;DHT22;14477;51.038;4.588;2023-10-08T15:43:52;29.40;52.60
26909;DHT22;14477;51.038;4.588;2023-10-08T15:46:24;29.30;52.60
26909;DHT22;14477;51.038;4.588;2023-10-08T15:48:52;29.20;52.80
26909;DHT22;14477;51.038;4.588;2023-10-08T15:51:20;29.20;53.10
26909;DHT22;14477;51.038;4.588;2023-10-08T15:53:46;29.20;53.30
26909;DHT22;14477;51.038;4.588;2023-10-08T15:56:12;29.20;53.20
26909;DHT22;14477;51.038;4.588;2023-10-08T15:58:38;29.10;53.10
26909;DHT22;14477;51.038;4.588;2023-10-08T16:01:04;29.10;53.10
26909;DHT22;14477;51.038;4.588;2023-10-08T16:03:30;29.10;53.20